createdAt,value
2023-02-12T00:01:20.893Z,17.07
2023-02-12T00:03:51.039Z,17.53
2023-02-12T00:06:19.596Z,16.47
2023-02-12T00:08:50.863Z,15.57
2023-02-12T00:11:21.022Z,16.20
2023-02-12T00:13:49.708Z,16.37
2023-02-12T00:16:20.194Z,17.60
2023-02-12T00:18:49.065Z,18.10
2023-02-12T00:21:18.870Z,17.80
2023-02-12T00:23:47.369Z,19.33
2023-02-12T00:26:17.434Z,21.80
2023-02-12T00:28:46.080Z,19.97
2023-02-12T00:31:16.267Z,19.43
2023-02-12T00:33:44.897Z,21.27
2023-02-12T00:36:16.147Z,19.47
2023-02-12T00:38:46.421Z,21.73
2023-02-12T00:41:15.109Z,20.47
2023-02-12T00:43:43.604Z,20.50
2023-02-12T00:46:12.306Z,20.73
2023-02-12T00:48:40.922Z,21.03
2023-02-12T00:51:09.599Z,19.20
2023-02-12T00:53:38.635Z,20.30
2023-02-12T00:56:08.584Z,21.17
2023-02-12T00:58:37.263Z,18.73
2023-02-12T01:01:05.982Z,19.20
2023-02-12T01:03:34.481Z,16.60
2023-02-12T01:06:03.085Z,16.33
2023-02-12T01:08:31.614Z,16.60
2023-02-12T01:11:01.669Z,17.50
2023-02-12T01:13:32.379Z,16.03
2023-02-12T01:16:06.740Z,17.10
2023-02-12T01:18:35.236Z,15.80
2023-02-12T01:21:04.873Z,15.43
2023-02-12T01:23:33.288Z,15.63
2023-02-12T01:26:01.745Z,15.40
2023-02-12T01:28:31.592Z,14.90
2023-02-12T01:31:00.186Z,14.63
2023-02-12T01:33:28.665Z,16.50
2023-02-12T01:35:58.041Z,16.10
2023-02-12T01:38:26.525Z,15.97
2023-02-12T01:40:54.879Z,13.63
2023-02-12T01:43:23.304Z,13.93
2023-02-12T01:45:54.855Z,14.83
2023-02-12T01:48:25.555Z,14.40
2023-02-12T01:50:54.809Z,15.30
2023-02-12T01:53:25.026Z,14.03
2023-02-12T01:55:56.718Z,11.77
2023-02-12T01:58:26.326Z,11.20
2023-02-12T02:00:56.408Z,12.57
2023-02-12T02:03:24.996Z,12.83
2023-02-12T02:05:58.045Z,14.00
2023-02-12T02:08:27.096Z,14.30
2023-02-12T02:10:55.540Z,15.53
2023-02-12T02:13:41.621Z,20.23
2023-02-12T02:16:19.268Z,21.30
2023-02-12T02:18:51.520Z,20.00
2023-02-12T02:21:42.776Z,18.70
2023-02-12T02:24:42.000Z,19.23
2023-02-12T02:27:20.827Z,17.20
2023-02-12T02:30:15.454Z,14.23
2023-02-12T02:32:56.973Z,13.53
2023-02-12T02:35:29.494Z,14.53
2023-02-12T02:38:06.913Z,14.20
2023-02-12T02:40:41.509Z,15.90
2023-02-12T02:43:12.409Z,14.60
2023-02-12T02:45:44.285Z,16.03
2023-02-12T02:48:18.913Z,14.70
2023-02-12T02:50:50.948Z,14.43
2023-02-12T02:53:22.819Z,14.33
2023-02-12T02:55:54.353Z,15.27
2023-02-12T02:58:27.155Z,12.43
2023-02-12T03:00:58.377Z,12.73
2023-02-12T03:03:31.715Z,11.87
2023-02-12T03:06:04.668Z,15.17
2023-02-12T03:08:37.608Z,13.33
2023-02-12T03:11:09.206Z,12.80
2023-02-12T03:13:40.719Z,14.20
2023-02-12T03:16:12.703Z,12.63
2023-02-12T03:18:46.361Z,11.70
2023-02-12T03:21:18.267Z,12.67
2023-02-12T03:23:52.576Z,11.83
2023-02-12T03:26:24.771Z,13.27
2023-02-12T03:28:53.231Z,12.97
2023-02-12T03:31:29.862Z,11.30
2023-02-12T03:34:08.898Z,12.27
2023-02-12T03:36:43.200Z,12.07
2023-02-12T03:39:15.257Z,11.87
2023-02-12T03:41:46.155Z,15.17
2023-02-12T03:44:22.775Z,12.07
2023-02-12T03:46:59.462Z,13.00
2023-02-12T03:49:32.660Z,11.70
2023-02-12T03:52:01.089Z,11.43
2023-02-12T03:54:29.548Z,11.27
2023-02-12T03:57:02.728Z,10.40
2023-02-12T03:59:31.597Z,11.23
2023-02-12T04:02:00.770Z,9.83
2023-02-12T04:04:30.814Z,12.77
2023-02-12T04:06:59.584Z,11.23
2023-02-12T04:09:29.067Z,8.70
2023-02-12T04:12:12.553Z,9.87
2023-02-12T04:14:45.707Z,10.60
2023-02-12T04:17:23.388Z,12.40
2023-02-12T04:20:04.760Z,14.37
2023-02-12T04:22:44.962Z,14.27
2023-02-12T04:25:22.923Z,13.97
2023-02-12T04:27:58.288Z,13.80
2023-02-12T04:30:30.754Z,13.80
2023-02-12T04:33:02.049Z,15.23
2023-02-12T04:35:34.904Z,12.97
2023-02-12T04:38:08.679Z,14.17
2023-02-12T04:40:37.785Z,13.87
2023-02-12T04:43:06.266Z,14.10
2023-02-12T04:45:36.741Z,12.30
2023-02-12T04:48:06.060Z,15.40
2023-02-12T04:50:40.483Z,13.17
2023-02-12T04:53:09.203Z,12.70
2023-02-12T04:55:37.745Z,11.33
2023-02-12T04:58:06.774Z,11.63
2023-02-12T05:00:35.213Z,11.90
2023-02-12T05:03:03.706Z,10.13
2023-02-12T05:05:32.148Z,9.77
2023-02-12T05:08:02.144Z,9.97
2023-02-12T05:10:30.638Z,10.07
2023-02-12T05:12:59.045Z,8.43
2023-02-12T05:15:27.566Z,9.13
2023-02-12T05:17:55.991Z,8.23
2023-02-12T05:20:24.399Z,8.97
2023-02-12T05:22:53.992Z,10.23
2023-02-12T05:25:23.860Z,13.67
2023-02-12T05:27:52.276Z,15.27
2023-02-12T05:30:20.937Z,13.17
2023-02-12T05:32:49.329Z,12.13
2023-02-12T05:35:17.875Z,11.37
2023-02-12T05:37:46.325Z,9.00
2023-02-12T05:40:15.669Z,8.80
2023-02-12T05:42:45.436Z,11.37
2023-02-12T05:45:13.912Z,11.80
2023-02-12T05:47:42.350Z,11.33
2023-02-12T05:50:11.517Z,14.47
2023-02-12T05:52:40.029Z,13.13
2023-02-12T05:55:09.390Z,14.80
2023-02-12T05:57:37.786Z,14.10
2023-02-12T06:00:09.741Z,11.33
2023-02-12T06:02:38.398Z,10.40
2023-02-12T06:05:07.603Z,9.23
2023-02-12T06:07:36.057Z,9.37
2023-02-12T06:10:04.532Z,8.73
2023-02-12T06:12:33.035Z,7.53
2023-02-12T06:15:01.569Z,7.50
2023-02-12T06:17:31.350Z,9.80
2023-02-12T06:19:59.789Z,17.70
2023-02-12T06:22:29.285Z,17.87
2023-02-12T06:24:57.745Z,15.40
2023-02-12T06:27:26.153Z,23.13
2023-02-12T06:29:54.627Z,26.55
2023-02-12T06:32:23.073Z,29.47
2023-02-12T06:34:55.191Z,22.80
2023-02-12T06:37:23.630Z,16.90
2023-02-12T06:39:52.042Z,15.00
2023-02-12T06:42:20.512Z,13.83
2023-02-12T06:44:51.329Z,14.57
2023-02-12T06:47:21.068Z,13.27
2023-02-12T06:49:49.533Z,11.40
2023-02-12T06:52:19.270Z,13.23
2023-02-12T06:54:47.770Z,14.33
2023-02-12T06:57:16.332Z,18.83
2023-02-12T06:59:45.121Z,27.50
2023-02-12T07:02:13.561Z,16.97
2023-02-12T07:04:42.096Z,20.77
2023-02-12T07:07:10.510Z,25.10
2023-02-12T07:09:40.350Z,19.97
2023-02-12T07:12:08.940Z,20.60
2023-02-12T07:14:37.500Z,16.63
2023-02-12T07:17:07.921Z,17.37
2023-02-12T07:19:36.514Z,18.03
2023-02-12T07:22:05.227Z,15.30
2023-02-12T07:24:33.725Z,14.90
2023-02-12T07:27:03.484Z,15.23
2023-02-12T07:29:31.954Z,16.03
2023-02-12T07:32:00.773Z,15.80
2023-02-12T07:34:29.248Z,20.87
2023-02-12T07:36:57.644Z,19.27
2023-02-12T07:39:26.196Z,17.30
2023-02-12T07:41:54.717Z,17.93
2023-02-12T07:44:24.516Z,17.90
2023-02-12T07:46:53.023Z,17.27
2023-02-12T07:49:22.890Z,19.80
2023-02-12T07:51:51.780Z,16.80
2023-02-12T07:54:20.301Z,16.37
2023-02-12T07:56:48.811Z,16.97
2023-02-12T07:59:18.477Z,14.43
2023-02-12T08:01:49.719Z,17.13
2023-02-12T08:04:19.938Z,16.03
2023-02-12T08:06:49.746Z,14.37
2023-02-12T08:09:20.446Z,14.30
2023-02-12T08:11:49.042Z,14.20
2023-02-12T08:14:19.174Z,18.63
2023-02-12T08:16:49.918Z,18.23
2023-02-12T08:19:21.940Z,13.13
2023-02-12T08:21:52.540Z,13.87
2023-02-12T08:24:22.067Z,13.67
2023-02-12T08:26:50.896Z,12.13
2023-02-12T08:29:21.080Z,17.30
2023-02-12T08:31:52.033Z,16.97
2023-02-12T08:34:23.129Z,16.30
2023-02-12T08:36:54.066Z,10.97
2023-02-12T08:39:23.008Z,11.13
2023-02-12T08:41:52.031Z,10.20
2023-02-12T08:44:20.640Z,10.40
2023-02-12T08:46:51.569Z,9.17
2023-02-12T08:49:21.768Z,10.57
2023-02-12T08:51:51.868Z,10.33
2023-02-12T08:54:22.435Z,12.33
2023-02-12T08:56:50.987Z,9.67
2023-02-12T08:59:19.511Z,12.30
2023-02-12T09:01:48.190Z,11.17
2023-02-12T09:04:21.540Z,10.70
2023-02-12T09:06:50.531Z,11.30
2023-02-12T09:09:19.680Z,10.00
2023-02-12T09:11:49.427Z,11.33
2023-02-12T09:14:24.314Z,9.83
2023-02-12T09:16:53.862Z,10.07
2023-02-12T09:19:23.941Z,8.90
2023-02-12T09:21:55.734Z,11.87
2023-02-12T09:24:25.560Z,9.80
2023-02-12T09:26:54.124Z,16.37
2023-02-12T09:29:22.542Z,11.63
2023-02-12T09:31:51.053Z,12.03
2023-02-12T09:34:19.581Z,11.53
2023-02-12T09:36:49.398Z,10.13
2023-02-12T09:39:17.967Z,15.00
2023-02-12T09:42:03.662Z,12.00
2023-02-12T09:44:38.042Z,9.40
2023-02-12T09:47:11.083Z,9.80
2023-02-12T09:49:53.545Z,7.50
2023-02-12T09:52:26.650Z,8.77
2023-02-12T09:54:55.694Z,6.90
2023-02-12T09:57:29.466Z,6.13
2023-02-12T10:00:00.198Z,6.60
2023-02-12T10:02:28.786Z,6.70
2023-02-12T10:05:01.623Z,6.87
2023-02-12T10:07:41.717Z,6.67
2023-02-12T10:10:19.806Z,11.37
2023-02-12T10:12:51.774Z,13.37
2023-02-12T10:15:33.642Z,12.83
2023-02-12T10:18:17.625Z,8.67
2023-02-12T10:21:00.998Z,6.53
2023-02-12T10:23:43.896Z,7.90
2023-02-12T10:26:20.688Z,6.57
2023-02-12T10:28:49.723Z,7.50
2023-02-12T10:31:23.424Z,6.07
2023-02-12T10:33:54.605Z,5.07
2023-02-12T10:36:32.527Z,5.40
2023-02-12T10:39:05.513Z,4.63
2023-02-12T10:41:34.457Z,4.67
2023-02-12T10:44:02.883Z,7.60
2023-02-12T10:46:32.152Z,8.20
2023-02-12T10:49:02.277Z,5.93
2023-02-12T10:51:40.316Z,6.47
2023-02-12T10:54:40.155Z,4.47
2023-02-12T10:57:18.582Z,5.53
2023-02-12T10:59:49.101Z,5.70
2023-02-12T11:02:24.287Z,5.73
2023-02-12T11:04:54.216Z,3.87
2023-02-12T11:07:23.155Z,7.20
2023-02-12T11:09:55.104Z,6.70
2023-02-12T11:12:32.272Z,4.00
2023-02-12T11:15:02.212Z,3.00
2023-02-12T11:17:35.917Z,2.93
2023-02-12T11:20:10.207Z,3.27
2023-02-12T11:22:38.586Z,2.20
2023-02-12T11:25:17.929Z,2.40
2023-02-12T11:27:46.482Z,7.00
2023-02-12T11:30:20.441Z,2.20
2023-02-12T11:32:51.678Z,2.40
2023-02-12T11:35:25.781Z,2.10
2023-02-12T11:37:56.427Z,1.90
2023-02-12T11:40:28.556Z,2.10
2023-02-12T11:42:59.325Z,2.53
2023-02-12T11:45:31.430Z,2.00
2023-02-12T11:48:00.249Z,1.60
2023-02-12T11:50:30.844Z,1.87
2023-02-12T11:53:01.695Z,2.10
2023-02-12T11:55:34.046Z,2.50
2023-02-12T11:58:06.653Z,1.60
2023-02-12T12:00:38.641Z,1.53
2023-02-12T12:03:13.930Z,1.80
2023-02-12T12:05:46.775Z,2.20
2023-02-12T12:08:20.362Z,5.53
2023-02-12T12:10:52.946Z,2.00
2023-02-12T12:13:26.058Z,1.87
2023-02-12T12:16:19.523Z,1.93
2023-02-12T12:19:07.535Z,1.30
2023-02-12T12:21:41.460Z,1.10
2023-02-12T12:24:14.860Z,1.60
2023-02-12T12:26:48.528Z,1.60
2023-02-12T12:29:22.029Z,0.90
2023-02-12T12:31:51.956Z,1.00
2023-02-12T12:34:27.746Z,1.60
2023-02-12T12:37:25.656Z,1.17
2023-02-12T12:40:09.235Z,0.67
2023-02-12T12:43:02.890Z,0.77
2023-02-12T12:45:59.600Z,0.87
2023-02-12T12:48:39.372Z,0.80
2023-02-12T12:51:18.727Z,0.47
2023-02-12T12:53:57.511Z,0.50
2023-02-12T12:56:46.876Z,1.83
2023-02-12T12:59:38.002Z,0.60
2023-02-12T13:02:52.688Z,0.80
2023-02-12T13:05:39.077Z,0.83
2023-02-12T13:08:14.745Z,0.40
2023-02-12T13:10:49.599Z,0.47
2023-02-12T13:13:27.792Z,0.43
2023-02-12T13:16:04.438Z,2.57
2023-02-12T13:18:42.730Z,0.90
2023-02-12T13:21:15.838Z,0.80
2023-02-12T13:23:49.395Z,6.27
2023-02-12T13:26:30.877Z,4.10
2023-02-12T13:29:03.229Z,2.60
2023-02-12T13:31:41.850Z,1.90
2023-02-12T13:34:15.010Z,1.70
2023-02-12T13:36:44.352Z,3.90
2023-02-12T13:39:18.021Z,8.93
2023-02-12T13:41:49.048Z,11.53
2023-02-12T13:44:21.524Z,8.47
2023-02-12T13:46:58.283Z,4.67
2023-02-12T13:49:36.368Z,1.70
2023-02-12T13:52:08.087Z,1.77
2023-02-12T13:54:46.528Z,1.13
2023-02-12T13:57:17.737Z,1.30
2023-02-12T13:59:48.092Z,0.63
2023-02-12T14:02:43.951Z,1.37
2023-02-12T14:05:28.983Z,4.33
2023-02-12T14:08:00.728Z,1.60
2023-02-12T14:10:39.989Z,1.00
2023-02-12T14:13:19.469Z,1.60
2023-02-12T14:15:51.604Z,0.90
2023-02-12T14:18:30.463Z,1.70
2023-02-12T14:21:44.181Z,1.70
2023-02-12T14:24:51.819Z,2.10
2023-02-12T14:27:36.062Z,2.83
2023-02-12T14:30:26.782Z,2.23
2023-02-12T14:33:26.328Z,2.73
2023-02-12T14:36:21.928Z,3.07
2023-02-12T14:39:01.584Z,2.20
2023-02-12T14:41:37.547Z,3.00
2023-02-12T14:44:47.023Z,2.97
2023-02-12T14:47:52.096Z,2.47
2023-02-12T14:50:28.061Z,2.83
2023-02-12T14:53:12.882Z,3.07
2023-02-12T14:55:43.680Z,3.00
2023-02-12T14:58:19.832Z,3.60
2023-02-12T15:00:49.719Z,8.80
2023-02-12T15:03:25.866Z,7.53
2023-02-12T15:06:06.308Z,4.77
2023-02-12T15:08:43.805Z,5.47
2023-02-12T15:11:21.649Z,5.73
2023-02-12T15:13:53.622Z,3.53
2023-02-12T15:16:42.939Z,2.13
2023-02-12T15:19:23.578Z,2.03
2023-02-12T15:21:54.445Z,7.70
2023-02-12T15:24:25.544Z,3.70
2023-02-12T15:26:55.503Z,3.00
2023-02-12T15:29:27.995Z,2.50
2023-02-12T15:31:58.582Z,1.80
2023-02-12T15:34:30.056Z,1.70
2023-02-12T15:37:00.175Z,2.07
2023-02-12T15:39:34.749Z,2.10
2023-02-12T15:42:03.491Z,1.80
2023-02-12T15:44:34.980Z,2.47
2023-02-12T15:47:11.961Z,4.80
2023-02-12T15:49:42.265Z,3.20
2023-02-12T15:52:17.073Z,3.37
2023-02-12T15:54:47.716Z,5.23
2023-02-12T15:57:22.524Z,4.47
2023-02-12T15:59:52.742Z,4.80
2023-02-12T16:02:23.191Z,6.03
2023-02-12T16:04:51.824Z,4.53
2023-02-12T16:07:20.988Z,5.67
2023-02-12T16:09:52.329Z,8.20
2023-02-12T16:12:23.213Z,8.63
2023-02-12T16:14:53.359Z,7.97
2023-02-12T16:17:24.558Z,5.17
2023-02-12T16:19:59.572Z,3.87
2023-02-12T16:22:32.377Z,7.90
2023-02-12T16:25:02.753Z,9.97
2023-02-12T16:27:32.417Z,12.67
2023-02-12T16:30:02.192Z,10.60
2023-02-12T16:32:35.008Z,11.37
2023-02-12T16:35:07.221Z,11.80
2023-02-12T16:37:45.562Z,13.60
2023-02-12T16:40:39.445Z,13.07
2023-02-12T16:43:26.636Z,14.80
2023-02-12T16:46:06.515Z,22.73
2023-02-12T16:48:39.804Z,36.23
2023-02-12T16:51:08.633Z,20.23
2023-02-12T16:53:47.590Z,19.50
2023-02-12T16:56:21.121Z,10.32
2023-02-12T16:58:51.432Z,12.00
2023-02-12T17:01:26.008Z,11.00
2023-02-12T17:03:55.126Z,10.10
2023-02-12T17:06:24.857Z,10.07
2023-02-12T17:08:53.444Z,10.60
2023-02-12T17:11:24.186Z,21.43
2023-02-12T17:13:54.221Z,26.80
2023-02-12T17:16:31.806Z,25.87
2023-02-12T17:19:01.722Z,16.23
2023-02-12T17:21:31.799Z,11.23
2023-02-12T17:24:00.383Z,10.37
2023-02-12T17:26:30.168Z,23.43
2023-02-12T17:29:05.223Z,18.90
2023-02-12T17:31:34.282Z,12.17
2023-02-12T17:34:03.148Z,8.97
2023-02-12T17:36:32.112Z,9.53
2023-02-12T17:39:00.827Z,11.60
2023-02-12T17:41:30.780Z,10.90
2023-02-12T17:43:59.577Z,10.10
2023-02-12T17:46:29.275Z,13.93
2023-02-12T17:48:58.398Z,17.03
2023-02-12T17:51:27.295Z,22.07
2023-02-12T17:53:55.692Z,17.53
2023-02-12T17:56:25.698Z,17.97
2023-02-12T17:58:55.580Z,21.90
2023-02-12T18:01:25.028Z,21.40
2023-02-12T18:03:55.834Z,23.57
2023-02-12T18:06:26.087Z,20.00
2023-02-12T18:08:55.391Z,13.57
2023-02-12T18:11:24.238Z,10.03
2023-02-12T18:13:55.739Z,10.73
2023-02-12T18:16:25.172Z,9.77
2023-02-12T18:18:53.777Z,10.17
2023-02-12T18:21:22.260Z,9.37
2023-02-12T18:23:50.898Z,11.57
2023-02-12T18:26:20.160Z,12.27
2023-02-12T18:28:48.918Z,14.33
2023-02-12T18:31:20.630Z,16.60
2023-02-12T18:33:49.282Z,12.87
2023-02-12T18:36:19.673Z,33.73
2023-02-12T18:38:49.551Z,40.77
2023-02-12T18:41:19.781Z,25.23
2023-02-12T18:43:48.317Z,17.70
2023-02-12T18:46:20.630Z,17.70
2023-02-12T18:48:49.916Z,14.80
2023-02-12T18:51:21.089Z,17.43
2023-02-12T18:53:49.825Z,15.80
2023-02-12T18:56:18.297Z,13.70
2023-02-12T18:58:46.905Z,13.20
2023-02-12T19:01:16.508Z,14.10
2023-02-12T19:03:46.833Z,19.80
2023-02-12T19:06:15.256Z,22.83
2023-02-12T19:08:43.848Z,21.70
2023-02-12T19:11:15.677Z,12.33
2023-02-12T19:13:44.368Z,8.80
2023-02-12T19:16:14.882Z,8.90
2023-02-12T19:18:43.590Z,7.70
2023-02-12T19:21:16.321Z,9.70
2023-02-12T19:23:44.915Z,8.00
2023-02-12T19:26:15.327Z,7.57
2023-02-12T19:28:44.238Z,18.00
2023-02-12T19:31:15.395Z,31.30
2023-02-12T19:33:44.814Z,17.80
2023-02-12T19:36:16.313Z,13.27
2023-02-12T19:38:44.924Z,10.07
2023-02-12T19:41:15.655Z,16.33
2023-02-12T19:43:44.488Z,15.20
2023-02-12T19:46:14.655Z,16.80
2023-02-12T19:48:43.392Z,13.93
2023-02-12T19:51:16.109Z,10.57
2023-02-12T19:53:45.224Z,10.60
2023-02-12T19:56:13.937Z,14.57
2023-02-12T19:58:42.560Z,14.27
2023-02-12T20:01:12.988Z,11.63
2023-02-12T20:03:41.565Z,11.07
2023-02-12T20:06:12.184Z,10.23
2023-02-12T20:08:44.037Z,10.47
2023-02-12T20:11:14.140Z,11.53
2023-02-12T20:13:43.131Z,12.07
2023-02-12T20:16:15.883Z,28.07
2023-02-12T20:18:44.580Z,33.37
2023-02-12T20:21:14.968Z,24.00
2023-02-12T20:23:44.945Z,15.33
2023-02-12T20:26:15.205Z,11.00
2023-02-12T20:28:44.154Z,11.00
2023-02-12T20:31:13.867Z,16.13
2023-02-12T20:33:42.700Z,15.17
2023-02-12T20:36:12.542Z,12.83
2023-02-12T20:38:41.574Z,11.70
2023-02-12T20:41:12.151Z,14.57
2023-02-12T20:43:40.630Z,21.13
2023-02-12T20:46:10.878Z,18.97
2023-02-12T20:48:39.342Z,17.30
2023-02-12T20:51:09.130Z,17.10
2023-02-12T20:53:38.045Z,16.40
2023-02-12T20:56:08.884Z,15.40
2023-02-12T20:58:40.475Z,21.37
2023-02-12T21:01:12.323Z,27.13
2023-02-12T21:03:41.211Z,21.20
2023-02-12T21:06:09.738Z,20.27
2023-02-12T21:08:39.066Z,17.37
2023-02-12T21:11:12.951Z,13.40
2023-02-12T21:13:50.327Z,14.77
2023-02-12T21:16:28.838Z,10.23
2023-02-12T21:18:57.580Z,10.47
2023-02-12T21:21:28.670Z,9.73
2023-02-12T21:23:58.341Z,11.13
2023-02-12T21:26:28.485Z,13.17
2023-02-12T21:29:01.190Z,16.80
2023-02-12T21:31:31.148Z,18.83
2023-02-12T21:34:00.797Z,15.43
2023-02-12T21:36:31.288Z,12.77
2023-02-12T21:39:00.140Z,13.60
2023-02-12T21:41:30.151Z,12.60
2023-02-12T21:44:03.397Z,15.97
2023-02-12T21:46:31.883Z,17.33
2023-02-12T21:49:00.597Z,15.80
2023-02-12T21:51:30.468Z,17.90
2023-02-12T21:54:00.356Z,12.53
2023-02-12T21:56:29.613Z,15.17
2023-02-12T21:59:00.000Z,18.60
2023-02-12T22:01:29.971Z,16.87
2023-02-12T22:03:58.393Z,14.53
2023-02-12T22:06:26.853Z,12.07
2023-02-12T22:08:56.265Z,9.43
2023-02-12T22:11:24.684Z,8.80
2023-02-12T22:13:53.320Z,7.10
2023-02-12T22:16:25.390Z,7.00
2023-02-12T22:18:56.129Z,9.63
2023-02-12T22:21:25.630Z,7.30
2023-02-12T22:23:54.829Z,9.97
2023-02-12T22:26:24.965Z,9.77
2023-02-12T22:28:55.393Z,11.00
2023-02-12T22:31:26.927Z,9.47
2023-02-12T22:33:57.176Z,9.83
2023-02-12T22:36:26.189Z,12.37
2023-02-12T22:38:56.368Z,11.47
2023-02-12T22:41:24.885Z,13.60
2023-02-12T22:43:53.417Z,13.37
2023-02-12T22:46:22.410Z,11.20
2023-02-12T22:48:52.190Z,15.80
2023-02-12T22:51:22.024Z,26.90
2023-02-12T22:53:50.588Z,34.70
2023-02-12T22:56:19.153Z,31.10
2023-02-12T22:58:48.086Z,33.93
2023-02-12T23:01:18.138Z,33.37
2023-02-12T23:03:47.011Z,25.00
2023-02-12T23:06:18.481Z,23.87
2023-02-12T23:08:50.703Z,22.90
2023-02-12T23:11:20.085Z,23.70
2023-02-12T23:13:48.581Z,20.27
2023-02-12T23:16:17.196Z,21.20
2023-02-12T23:18:45.761Z,19.60
2023-02-12T23:21:14.312Z,22.60
2023-02-12T23:23:44.127Z,25.07
2023-02-12T23:26:12.544Z,22.07
2023-02-12T23:28:40.968Z,19.27
2023-02-12T23:31:09.702Z,19.03
2023-02-12T23:33:38.254Z,25.80
2023-02-12T23:36:07.414Z,27.23
2023-02-12T23:38:35.820Z,29.40
2023-02-12T23:41:05.839Z,26.87
2023-02-12T23:43:34.257Z,25.57
2023-02-12T23:46:03.776Z,18.83
2023-02-12T23:48:32.312Z,10.90
2023-02-12T23:51:00.787Z,8.63
2023-02-12T23:53:29.168Z,7.70
2023-02-12T23:55:57.667Z,7.30
2023-02-12T23:58:27.479Z,8.80
